createdAt,value
2023-02-12T00:00:45.123Z,23.30
2023-02-12T00:03:12.050Z,21.20
2023-02-12T00:05:41.550Z,21.23
2023-02-12T00:08:11.261Z,22.75
2023-02-12T00:10:43.243Z,23.77
2023-02-12T00:13:13.092Z,25.08
2023-02-12T00:15:40.855Z,22.30
2023-02-12T00:18:08.011Z,29.63
2023-02-12T00:20:35.276Z,24.05
2023-02-12T00:23:02.071Z,22.80
2023-02-12T00:25:28.813Z,26.25
2023-02-12T00:27:57.626Z,23.52
2023-02-12T00:30:26.119Z,25.55
2023-02-12T00:32:55.382Z,22.63
2023-02-12T00:35:22.024Z,26.67
2023-02-12T00:37:50.451Z,25.65
2023-02-12T00:40:17.205Z,26.02
2023-02-12T00:42:43.872Z,22.73
2023-02-12T00:45:10.650Z,26.23
2023-02-12T00:47:37.374Z,26.08
2023-02-12T00:50:04.213Z,26.02
2023-02-12T00:52:31.128Z,20.15
2023-02-12T00:54:57.980Z,27.75
2023-02-12T00:57:24.722Z,27.10
2023-02-12T00:59:51.441Z,27.50
2023-02-12T01:02:18.186Z,26.05
2023-02-12T01:04:45.827Z,25.63
2023-02-12T01:07:12.552Z,24.60
2023-02-12T01:09:39.229Z,26.08
2023-02-12T01:12:06.932Z,29.17
2023-02-12T01:14:33.912Z,23.58
2023-02-12T01:17:00.635Z,26.45
2023-02-12T01:19:27.878Z,29.88
2023-02-12T01:21:54.603Z,24.25
2023-02-12T01:24:21.441Z,26.08
2023-02-12T01:26:48.169Z,26.85
2023-02-12T01:29:14.853Z,29.23
2023-02-12T01:31:43.424Z,26.95
2023-02-12T01:34:11.697Z,28.88
2023-02-12T01:36:39.139Z,25.98
2023-02-12T01:39:06.551Z,34.33
2023-02-12T01:41:37.071Z,28.95
2023-02-12T01:44:13.960Z,26.55
2023-02-12T01:46:41.911Z,23.88
2023-02-12T01:49:20.599Z,25.73
2023-02-12T01:51:51.241Z,28.05
2023-02-12T01:54:21.154Z,26.67
2023-02-12T01:56:48.727Z,25.42
2023-02-12T01:59:16.979Z,25.83
2023-02-12T02:01:44.593Z,26.70
2023-02-12T02:04:19.573Z,29.30
2023-02-12T02:07:03.116Z,27.90
2023-02-12T02:09:33.225Z,26.63
2023-02-12T02:12:20.074Z,24.00
2023-02-12T02:14:49.272Z,30.42
2023-02-12T02:17:43.995Z,29.38
2023-02-12T02:20:44.969Z,27.10
2023-02-12T02:23:20.237Z,26.77
2023-02-12T02:26:37.889Z,28.23
2023-02-12T02:29:26.259Z,30.20
2023-02-12T02:32:13.862Z,29.30
2023-02-12T02:34:57.603Z,27.17
2023-02-12T02:37:31.462Z,26.30
2023-02-12T02:40:12.557Z,30.25
2023-02-12T02:43:04.790Z,28.23
2023-02-12T02:45:37.904Z,31.83
2023-02-12T02:48:18.007Z,27.88
2023-02-12T02:50:51.630Z,30.65
2023-02-12T02:53:29.726Z,29.15
2023-02-12T02:56:00.263Z,32.78
2023-02-12T02:58:32.781Z,30.55
2023-02-12T03:01:10.997Z,28.20
2023-02-12T03:03:59.309Z,27.30
2023-02-12T03:06:34.595Z,36.45
2023-02-12T03:09:09.297Z,32.45
2023-02-12T03:11:36.020Z,30.30
2023-02-12T03:14:20.434Z,28.90
2023-02-12T03:16:50.068Z,28.08
2023-02-12T03:19:22.023Z,30.90
2023-02-12T03:22:06.660Z,25.98
2023-02-12T03:24:42.134Z,31.75
2023-02-12T03:27:11.428Z,28.45
2023-02-12T03:29:38.518Z,26.00
2023-02-12T03:32:42.135Z,30.95
2023-02-12T03:35:20.617Z,27.83
2023-02-12T03:38:04.433Z,29.83
2023-02-12T03:40:50.953Z,32.85
2023-02-12T03:43:24.946Z,28.60
2023-02-12T03:45:59.698Z,29.88
2023-02-12T03:49:05.865Z,31.70
2023-02-12T03:51:39.287Z,30.00
2023-02-12T03:54:09.093Z,31.17
2023-02-12T03:56:49.052Z,35.08
2023-02-12T03:59:17.160Z,31.63
2023-02-12T04:01:43.974Z,31.77
2023-02-12T04:04:11.629Z,29.98
2023-02-12T04:06:38.896Z,29.67
2023-02-12T04:09:08.966Z,30.67
2023-02-12T04:12:11.297Z,30.55
2023-02-12T04:14:58.050Z,30.10
2023-02-12T04:17:54.124Z,32.90
2023-02-12T04:20:56.968Z,36.63
2023-02-12T04:24:15.935Z,30.75
2023-02-12T04:27:04.509Z,36.80
2023-02-12T04:29:58.689Z,33.88
2023-02-12T04:32:28.865Z,29.17
2023-02-12T04:35:09.736Z,33.60
2023-02-12T04:37:41.999Z,32.78
2023-02-12T04:40:13.657Z,31.95
2023-02-12T04:42:49.798Z,32.28
2023-02-12T04:45:22.736Z,34.92
2023-02-12T04:47:49.480Z,32.08
2023-02-12T04:50:26.093Z,32.08
2023-02-12T04:52:52.857Z,34.67
2023-02-12T04:55:19.606Z,34.67
2023-02-12T04:57:46.297Z,30.42
2023-02-12T05:00:14.893Z,29.75
2023-02-12T05:02:41.560Z,30.08
2023-02-12T05:05:08.441Z,29.77
2023-02-12T05:07:35.228Z,28.10
2023-02-12T05:10:02.038Z,28.83
2023-02-12T05:12:28.719Z,24.38
2023-02-12T05:14:55.395Z,25.27
2023-02-12T05:17:23.707Z,27.00
2023-02-12T05:19:50.748Z,26.30
2023-02-12T05:22:17.717Z,25.48
2023-02-12T05:24:47.503Z,24.15
2023-02-12T05:27:14.194Z,23.10
2023-02-12T05:29:41.146Z,26.63
2023-02-12T05:32:08.238Z,24.80
2023-02-12T05:34:35.858Z,24.80
2023-02-12T05:37:02.681Z,26.98
2023-02-12T05:39:29.556Z,25.13
2023-02-12T05:41:56.240Z,26.77
2023-02-12T05:44:22.913Z,23.23
2023-02-12T05:46:49.632Z,26.58
2023-02-12T05:49:18.938Z,22.55
2023-02-12T05:51:45.891Z,25.83
2023-02-12T05:54:12.637Z,20.88
2023-02-12T05:56:44.969Z,21.90
2023-02-12T05:59:18.583Z,23.55
2023-02-12T06:01:46.838Z,23.73
2023-02-12T06:04:19.638Z,24.65
2023-02-12T06:06:46.375Z,23.52
2023-02-12T06:09:14.111Z,22.63
2023-02-12T06:11:41.266Z,26.77
2023-02-12T06:14:11.193Z,30.83
2023-02-12T06:16:38.241Z,26.52
2023-02-12T06:19:06.404Z,23.40
2023-02-12T06:21:34.387Z,28.58
2023-02-12T06:24:01.294Z,25.60
2023-02-12T06:26:29.110Z,26.83
2023-02-12T06:28:55.875Z,26.15
2023-02-12T06:31:26.315Z,27.33
2023-02-12T06:33:54.520Z,27.67
2023-02-12T06:36:21.674Z,25.38
2023-02-12T06:38:49.139Z,26.77
2023-02-12T06:41:16.468Z,23.88
2023-02-12T06:43:45.603Z,24.83
2023-02-12T06:46:13.145Z,23.90
2023-02-12T06:48:40.261Z,23.00
2023-02-12T06:51:11.485Z,28.40
2023-02-12T06:53:38.320Z,24.65
2023-02-12T06:56:11.144Z,23.42
2023-02-12T06:58:39.611Z,24.20
2023-02-12T07:01:18.877Z,28.17
2023-02-12T07:03:51.909Z,24.10
2023-02-12T07:06:20.064Z,24.13
2023-02-12T07:08:47.562Z,23.02
2023-02-12T07:11:14.329Z,24.83
2023-02-12T07:13:42.307Z,24.55
2023-02-12T07:16:12.148Z,23.70
2023-02-12T07:18:41.385Z,27.23
2023-02-12T07:21:09.646Z,27.25
2023-02-12T07:23:37.241Z,26.33
2023-02-12T07:26:10.706Z,25.20
2023-02-12T07:28:37.911Z,25.90
2023-02-12T07:31:14.669Z,29.25
2023-02-12T07:33:42.403Z,27.42
2023-02-12T07:36:17.275Z,31.25
2023-02-12T07:38:44.328Z,25.80
2023-02-12T07:41:20.201Z,27.08
2023-02-12T07:43:57.667Z,24.38
2023-02-12T07:46:29.888Z,27.40
2023-02-12T07:49:01.551Z,25.25
2023-02-12T07:51:29.031Z,29.27
2023-02-12T07:53:56.216Z,31.52
2023-02-12T07:56:32.599Z,27.23
2023-02-12T08:01:30.890Z,25.48
2023-02-12T08:04:03.354Z,25.60
2023-02-12T08:06:33.192Z,28.80
2023-02-12T08:09:02.529Z,28.60
2023-02-12T08:11:30.301Z,25.38
2023-02-12T08:13:59.180Z,24.38
2023-02-12T08:16:27.765Z,25.08
2023-02-12T08:18:55.777Z,27.13
2023-02-12T08:21:25.483Z,30.90
2023-02-12T08:23:54.123Z,27.52
2023-02-12T08:26:33.525Z,24.60
2023-02-12T08:29:13.467Z,28.13
2023-02-12T08:31:43.157Z,27.30
2023-02-12T08:34:18.609Z,28.80
2023-02-12T08:36:46.732Z,25.65
2023-02-12T08:39:16.028Z,30.00
2023-02-12T08:41:43.294Z,29.55
2023-02-12T08:44:11.329Z,27.15
2023-02-12T08:46:48.394Z,33.85
2023-02-12T08:49:20.410Z,28.38
2023-02-12T08:51:49.740Z,26.25
2023-02-12T08:54:20.229Z,31.33
2023-02-12T08:56:46.998Z,39.92
2023-02-12T08:59:16.580Z,56.55
2023-02-12T09:01:45.033Z,52.30
2023-02-12T09:04:24.771Z,52.85
2023-02-12T09:06:52.109Z,42.58
2023-02-12T09:09:19.900Z,45.20
2023-02-12T09:11:47.606Z,39.63
2023-02-12T09:14:16.500Z,38.63
2023-02-12T09:16:44.145Z,40.92
2023-02-12T09:19:13.605Z,35.85
2023-02-12T09:21:40.546Z,41.72
2023-02-12T09:24:07.628Z,34.08
2023-02-12T09:26:34.375Z,32.20
2023-02-12T09:29:02.845Z,34.67
2023-02-12T09:31:31.421Z,32.13
2023-02-12T09:34:01.234Z,29.23
2023-02-12T09:36:31.073Z,30.58
2023-02-12T09:38:59.276Z,33.17
2023-02-12T09:41:46.877Z,31.75
2023-02-12T09:44:37.561Z,29.10
2023-02-12T09:47:18.687Z,31.30
2023-02-12T09:50:10.785Z,29.05
2023-02-12T09:52:37.863Z,28.17
2023-02-12T09:55:05.167Z,28.40
2023-02-12T09:57:37.588Z,28.88
2023-02-12T10:00:15.706Z,30.25
2023-02-12T10:02:42.652Z,30.60
2023-02-12T10:05:23.887Z,27.58
2023-02-12T10:08:31.262Z,29.35
2023-02-12T10:11:29.955Z,28.25
2023-02-12T10:14:18.880Z,27.08
2023-02-12T10:17:23.096Z,30.83
2023-02-12T10:20:01.199Z,28.38
2023-02-12T10:22:56.797Z,28.38
2023-02-12T10:25:29.540Z,28.80
2023-02-12T10:28:00.100Z,28.73
2023-02-12T10:30:31.797Z,29.23
2023-02-12T10:33:08.093Z,34.00
2023-02-12T10:35:35.633Z,41.78
2023-02-12T10:38:07.808Z,32.08
2023-02-12T10:40:37.574Z,28.50
2023-02-12T10:43:04.376Z,32.33
2023-02-12T10:45:40.043Z,28.52
2023-02-12T10:48:22.347Z,25.92
2023-02-12T10:51:08.134Z,27.75
2023-02-12T10:53:45.791Z,26.17
2023-02-12T10:56:12.742Z,27.95
2023-02-12T10:58:50.242Z,29.77
2023-02-12T11:01:20.728Z,27.55
2023-02-12T11:03:47.690Z,27.13
2023-02-12T11:06:18.139Z,31.27
2023-02-12T11:08:45.344Z,27.48
2023-02-12T11:11:15.966Z,29.15
2023-02-12T11:13:57.249Z,28.00
2023-02-12T11:16:45.372Z,29.15
2023-02-12T11:19:27.622Z,33.17
2023-02-12T11:22:08.956Z,25.75
2023-02-12T11:24:37.511Z,31.48
2023-02-12T11:27:16.341Z,28.60
2023-02-12T11:29:44.569Z,26.95
2023-02-12T11:32:20.038Z,24.85
2023-02-12T11:35:10.565Z,25.25
2023-02-12T11:37:41.117Z,26.23
2023-02-12T11:40:22.457Z,24.58
2023-02-12T11:42:59.045Z,26.75
2023-02-12T11:45:45.443Z,25.23
2023-02-12T11:48:22.212Z,25.13
2023-02-12T11:50:52.347Z,24.42
2023-02-12T11:53:30.264Z,28.05
2023-02-12T11:56:12.518Z,33.65
2023-02-12T11:58:39.748Z,25.52
2023-02-12T12:01:32.405Z,24.27
2023-02-12T12:04:21.296Z,26.80
2023-02-12T12:07:10.785Z,26.48
2023-02-12T12:09:42.489Z,28.60
2023-02-12T12:12:13.770Z,27.02
2023-02-12T12:15:07.792Z,24.33
2023-02-12T12:18:05.696Z,25.38
2023-02-12T12:20:41.204Z,24.15
2023-02-12T12:23:17.525Z,26.80
2023-02-12T12:25:49.304Z,24.95
2023-02-12T12:29:01.322Z,23.07
2023-02-12T12:31:39.350Z,29.27
2023-02-12T12:34:18.832Z,32.72
2023-02-12T12:37:07.876Z,26.98
2023-02-12T12:40:21.999Z,31.40
2023-02-12T12:43:12.084Z,23.10
2023-02-12T12:45:59.697Z,24.17
2023-02-12T12:48:43.712Z,23.52
2023-02-12T12:51:23.869Z,25.13
2023-02-12T12:54:10.528Z,20.40
2023-02-12T12:57:17.208Z,22.00
2023-02-12T12:59:56.250Z,21.52
2023-02-12T13:02:49.134Z,22.60
2023-02-12T13:05:53.122Z,22.50
2023-02-12T13:08:49.799Z,22.23
2023-02-12T13:11:38.047Z,24.05
2023-02-12T13:14:29.203Z,23.42
2023-02-12T13:17:17.504Z,19.95
2023-02-12T13:19:59.830Z,21.08
2023-02-12T13:23:05.628Z,21.55
2023-02-12T13:25:52.527Z,21.95
2023-02-12T13:28:31.378Z,24.02
2023-02-12T13:31:00.573Z,20.73
2023-02-12T13:33:42.609Z,20.35
2023-02-12T13:36:13.709Z,22.13
2023-02-12T13:39:03.595Z,19.60
2023-02-12T13:41:31.506Z,18.50
2023-02-12T13:44:17.347Z,19.17
2023-02-12T13:47:02.822Z,18.55
2023-02-12T13:50:03.319Z,19.95
2023-02-12T13:52:45.852Z,21.70
2023-02-12T13:55:41.598Z,18.65
2023-02-12T13:58:30.716Z,17.70
2023-02-12T14:01:11.740Z,21.70
2023-02-12T14:03:46.675Z,19.42
2023-02-12T14:06:20.328Z,16.65
2023-02-12T14:08:50.976Z,19.98
2023-02-12T14:11:24.034Z,17.60
2023-02-12T14:14:01.134Z,16.38
2023-02-12T14:16:33.775Z,19.58
2023-02-12T14:19:36.856Z,16.33
2023-02-12T14:22:14.726Z,16.30
2023-02-12T14:24:48.844Z,16.35
2023-02-12T14:27:56.064Z,19.38
2023-02-12T14:30:40.198Z,17.85
2023-02-12T14:33:07.106Z,18.42
2023-02-12T14:35:36.741Z,18.67
2023-02-12T14:38:32.132Z,15.40
2023-02-12T14:41:37.694Z,20.40
2023-02-12T14:44:23.211Z,20.10
2023-02-12T14:46:58.860Z,15.35
2023-02-12T14:49:38.716Z,17.98
2023-02-12T14:52:13.705Z,19.40
2023-02-12T14:54:53.657Z,16.83
2023-02-12T14:57:20.359Z,13.75
2023-02-12T14:59:48.735Z,20.40
2023-02-12T15:02:25.350Z,16.52
2023-02-12T15:04:58.084Z,18.00
2023-02-12T15:07:49.826Z,15.15
2023-02-12T15:10:24.221Z,15.27
2023-02-12T15:13:02.946Z,16.38
2023-02-12T15:16:07.312Z,15.13
2023-02-12T15:18:52.803Z,14.55
2023-02-12T15:21:29.143Z,16.90
2023-02-12T15:24:13.735Z,18.27
2023-02-12T15:26:48.271Z,17.42
2023-02-12T15:29:41.355Z,21.67
2023-02-12T15:32:15.976Z,17.33
2023-02-12T15:34:47.854Z,19.42
2023-02-12T15:37:22.559Z,17.95
2023-02-12T15:39:49.973Z,15.55
2023-02-12T15:42:26.642Z,16.08
2023-02-12T15:45:02.824Z,22.73
2023-02-12T15:47:29.561Z,19.67
2023-02-12T15:49:59.785Z,19.85
2023-02-12T15:52:39.378Z,18.55
2023-02-12T15:55:12.116Z,26.42
2023-02-12T15:57:42.949Z,24.10
2023-02-12T16:00:31.917Z,28.77
2023-02-12T16:02:58.896Z,20.90
2023-02-12T16:05:26.412Z,22.48
2023-02-12T16:07:54.040Z,23.27
2023-02-12T16:10:21.415Z,22.85
2023-02-12T16:12:49.236Z,32.38
2023-02-12T16:15:32.361Z,27.55
2023-02-12T16:17:59.737Z,20.55
2023-02-12T16:20:29.407Z,22.58
2023-02-12T16:22:56.834Z,21.05
2023-02-12T16:25:30.202Z,22.13
2023-02-12T16:28:13.660Z,23.63
2023-02-12T16:30:43.030Z,18.60
2023-02-12T16:33:48.735Z,19.92
2023-02-12T16:36:24.056Z,20.60
2023-02-12T16:39:05.508Z,22.67
2023-02-12T16:41:34.963Z,25.10
2023-02-12T16:44:01.681Z,33.70
2023-02-12T16:46:31.243Z,28.25
2023-02-12T16:49:00.685Z,31.05
2023-02-12T16:51:33.878Z,30.58
2023-02-12T16:54:03.282Z,22.83
2023-02-12T16:56:40.392Z,24.25
2023-02-12T16:59:07.206Z,24.80
2023-02-12T17:01:36.769Z,29.20
2023-02-12T17:04:14.738Z,31.90
2023-02-12T17:06:41.468Z,32.35
2023-02-12T17:09:09.736Z,31.25
2023-02-12T17:11:36.512Z,23.98
2023-02-12T17:14:04.037Z,25.83
2023-02-12T17:16:32.029Z,24.63
2023-02-12T17:19:00.742Z,21.95
2023-02-12T17:21:38.266Z,24.02
2023-02-12T17:24:25.304Z,21.40
2023-02-12T17:27:00.104Z,18.60
2023-02-12T17:29:27.585Z,21.13
2023-02-12T17:31:55.872Z,22.73
2023-02-12T17:34:23.706Z,25.23
2023-02-12T17:36:50.519Z,21.83
2023-02-12T17:39:18.429Z,20.80
2023-02-12T17:41:45.369Z,25.27
2023-02-12T17:44:13.876Z,33.90
2023-02-12T17:46:41.706Z,34.25
2023-02-12T17:49:09.076Z,30.95
2023-02-12T17:51:38.927Z,30.17
2023-02-12T17:54:09.285Z,23.40
2023-02-12T17:56:36.258Z,30.35
2023-02-12T17:59:03.221Z,23.08
2023-02-12T18:01:29.979Z,23.85
2023-02-12T18:04:02.279Z,23.20
2023-02-12T18:06:31.019Z,25.05
2023-02-12T18:08:59.281Z,25.70
2023-02-12T18:11:26.055Z,22.20
2023-02-12T18:13:55.665Z,23.20
2023-02-12T18:16:28.180Z,25.70
2023-02-12T18:18:55.654Z,26.17
2023-02-12T18:21:22.428Z,25.98
2023-02-12T18:23:49.286Z,25.17
2023-02-12T18:26:17.966Z,25.38
2023-02-12T18:28:45.269Z,24.48
2023-02-12T18:31:12.650Z,27.48
2023-02-12T18:33:39.639Z,25.20
2023-02-12T18:36:09.799Z,23.08
2023-02-12T18:38:38.200Z,26.73
2023-02-12T18:41:13.480Z,25.35
2023-02-12T18:43:40.298Z,25.00
2023-02-12T18:46:18.704Z,24.38
2023-02-12T18:48:45.749Z,24.15
2023-02-12T18:51:16.341Z,29.42
2023-02-12T18:53:43.291Z,27.60
2023-02-12T18:56:11.554Z,30.10
2023-02-12T18:58:39.365Z,25.02
2023-02-12T19:01:14.952Z,26.38
2023-02-12T19:03:42.446Z,25.85
2023-02-12T19:06:09.626Z,25.33
2023-02-12T19:08:36.373Z,23.92
2023-02-12T19:11:05.064Z,23.95
2023-02-12T19:13:31.783Z,27.83
2023-02-12T19:15:58.710Z,27.27
2023-02-12T19:18:25.580Z,32.00
2023-02-12T19:20:52.334Z,29.73
2023-02-12T19:23:19.332Z,27.10
2023-02-12T19:25:46.075Z,26.75
2023-02-12T19:28:15.574Z,27.92
2023-02-12T19:30:42.408Z,24.50
2023-02-12T19:33:09.634Z,27.40
2023-02-12T19:35:36.476Z,27.55
2023-02-12T19:38:03.369Z,23.55
2023-02-12T19:40:30.236Z,28.98
2023-02-12T19:42:57.079Z,29.08
2023-02-12T19:45:23.811Z,28.35
2023-02-12T19:47:51.740Z,32.45
2023-02-12T19:50:18.707Z,33.70
2023-02-12T19:52:45.508Z,29.38
2023-02-12T19:55:12.262Z,35.63
2023-02-12T19:57:39.464Z,26.35
2023-02-12T20:00:07.275Z,34.08
2023-02-12T20:02:33.943Z,26.63
2023-02-12T20:05:00.717Z,31.40
2023-02-12T20:07:27.510Z,30.20
2023-02-12T20:09:54.336Z,30.00
2023-02-12T20:12:20.992Z,27.13
2023-02-12T20:14:47.710Z,30.13
2023-02-12T20:17:14.818Z,33.03
2023-02-12T20:19:41.607Z,34.85
2023-02-12T20:22:08.534Z,34.03
2023-02-12T20:24:35.315Z,35.13
2023-02-12T20:27:02.958Z,39.00
2023-02-12T20:29:30.033Z,41.05
2023-02-12T20:31:57.112Z,37.38
2023-02-12T20:34:24.359Z,35.88
2023-02-12T20:36:54.214Z,34.22
2023-02-12T20:39:21.502Z,32.72
2023-02-12T20:41:49.245Z,32.58
2023-02-12T20:44:18.675Z,33.33
2023-02-12T20:46:47.278Z,38.25
2023-02-12T20:49:16.171Z,34.15
2023-02-12T20:51:43.940Z,36.63
2023-02-12T20:54:11.044Z,43.38
2023-02-12T20:56:38.750Z,40.28
2023-02-12T20:59:06.727Z,36.60
2023-02-12T21:01:36.609Z,34.20
2023-02-12T21:04:06.046Z,40.92
2023-02-12T21:06:33.498Z,31.23
2023-02-12T21:09:00.434Z,38.67
2023-02-12T21:11:28.485Z,30.83
2023-02-12T21:14:02.531Z,32.83
2023-02-12T21:16:35.702Z,32.40
2023-02-12T21:19:02.902Z,33.63
2023-02-12T21:21:33.427Z,32.03
2023-02-12T21:24:01.786Z,31.65
2023-02-12T21:26:30.671Z,31.05
2023-02-12T21:28:59.236Z,33.42
2023-02-12T21:31:32.151Z,39.45
2023-02-12T21:34:01.001Z,32.90
2023-02-12T21:36:30.658Z,33.83
2023-02-12T21:38:57.811Z,32.55
2023-02-12T21:41:27.423Z,38.17
2023-02-12T21:43:58.866Z,34.28
2023-02-12T21:46:26.327Z,38.20
2023-02-12T21:48:53.233Z,37.40
2023-02-12T21:51:22.605Z,38.70
2023-02-12T21:53:51.080Z,31.40
2023-02-12T21:56:19.555Z,34.45
2023-02-12T21:58:49.542Z,38.13
2023-02-12T22:01:19.152Z,35.58
2023-02-12T22:03:46.116Z,32.92
2023-02-12T22:06:16.166Z,36.65
2023-02-12T22:08:43.095Z,34.05
2023-02-12T22:11:11.684Z,43.17
2023-02-12T22:13:40.761Z,37.60
2023-02-12T22:16:19.577Z,35.47
2023-02-12T22:18:47.934Z,38.03
2023-02-12T22:21:16.906Z,40.10
2023-02-12T22:23:45.079Z,38.40
2023-02-12T22:26:17.710Z,38.50
2023-02-12T22:31:15.487Z,34.58
2023-02-12T22:33:42.266Z,34.00
2023-02-12T22:36:09.925Z,36.08
2023-02-12T22:38:38.008Z,37.20
2023-02-12T22:41:05.937Z,37.15
2023-02-12T22:43:35.499Z,33.10
2023-02-12T22:46:02.525Z,35.03
2023-02-12T22:48:29.725Z,33.13
2023-02-12T22:50:57.650Z,34.30
2023-02-12T22:53:25.494Z,33.45
2023-02-12T22:55:52.942Z,35.03
2023-02-12T22:58:19.810Z,35.15
2023-02-12T23:00:46.658Z,36.10
2023-02-12T23:03:13.393Z,34.65
2023-02-12T23:05:40.084Z,31.25
2023-02-12T23:08:07.098Z,36.92
2023-02-12T23:10:33.958Z,41.55
2023-02-12T23:13:02.276Z,33.90
2023-02-12T23:15:29.479Z,35.17
2023-02-12T23:17:56.482Z,31.10
2023-02-12T23:20:23.408Z,34.80
2023-02-12T23:22:50.174Z,36.08
2023-02-12T23:25:16.944Z,34.92
2023-02-12T23:27:43.660Z,33.85
2023-02-12T23:30:10.816Z,35.72
2023-02-12T23:32:37.525Z,33.80
2023-02-12T23:35:04.542Z,35.78
2023-02-12T23:37:31.304Z,35.65
2023-02-12T23:39:58.024Z,34.80
2023-02-12T23:42:24.748Z,31.30
2023-02-12T23:44:51.491Z,35.78
2023-02-12T23:47:19.350Z,34.72
2023-02-12T23:49:48.763Z,31.10
2023-02-12T23:52:36.792Z,33.10
2023-02-12T23:55:04.117Z,30.50
2023-02-12T23:57:33.578Z,32.00
